Bealach na Ba, United Kingdom
Current Conditions -  °F | °C
As of 6:20 AM on Wednesday 26 Nov 2014 (Local Time) from EGPO Reporting Station
Light Rain Light Rain  
Wind Chill: 42°   Ceiling: 3400
Heat Index: 48°   Visibility: 6mi
Dew Point: 43°   Wind: 15mph
Humidity: 82%   Direction: 200°SSW
Pressure: 29.94"   Gusts: NA
Location:  57.42°N, 5.69°W
Report Text: EGPO 260620Z 20013KT 9999 -RA FEW010 SCT018 BKN034 09/06 Q1014
Loading
Personal Weather Stations






























Interactive Weather Map New forecast layout! Learn more

10-Day Weather Forecast

Advertisements
Track Severe Weather on mobile